Sintra Airport Sintra PT
ICAO: LPST
IATA:
Category: Medium
Scheduled Services: No

Elevation: 440 ft
TransAlt. 4000 ft.

Airport Communications:
APP:118.6
GND:122.1
TWR:119.85

LPST Zoom In..

Runways:

(A) RW 14 length 5906 ft width 131 ft
---- / hdg 139

(B) RW 32 length 5906 ft width 131 ft
---- / hdg 319

Location; LPST
Day. 21 / Time. 17.00 Zulu
* QNH: 1009
* Temperature: 13° c. 55.4°f.
* Wind from: 300° Speed 10 kn.
Dewpoint: 09° c.
Visibility: 10 km or more,
No clouds below 1,500 m.
No cumulonimbus, and no significant weather
fenomena in the aerodrome or its vicinity.

LPST 211700Z 30010KT CAVOK 13/09 Q1009


Wind From 300°
Speed 10 kn.

YouTube Music Video
 
jpsmedia.com for Web Design  worldairports.se 2018   terms of use